sensor_id;sensor_type;location;lat;lon;timestamp;P1;durP1;ratioP1;P2;durP2;ratioP2
6372;SDS011;3219;51.362;7.074;2023-05-03T00:01:39;5.80;;;2.83;;
6372;SDS011;3219;51.362;7.074;2023-05-03T00:04:08;6.50;;;3.58;;
6372;SDS011;3219;51.362;7.074;2023-05-03T00:06:35;5.80;;;2.97;;
6372;SDS011;3219;51.362;7.074;2023-05-03T00:09:02;4.60;;;3.72;;
6372;SDS011;3219;51.362;7.074;2023-05-03T00:11:29;5.45;;;3.92;;
6372;SDS011;3219;51.362;7.074;2023-05-03T00:13:55;5.07;;;3.67;;
6372;SDS011;3219;51.362;7.074;2023-05-03T00:16:22;6.28;;;4.15;;
6372;SDS011;3219;51.362;7.074;2023-05-03T00:18:49;4.38;;;3.33;;
6372;SDS011;3219;51.362;7.074;2023-05-03T00:21:17;6.00;;;3.15;;
6372;SDS011;3219;51.362;7.074;2023-05-03T00:23:44;5.45;;;3.80;;
6372;SDS011;3219;51.362;7.074;2023-05-03T00:26:10;4.68;;;3.10;;
6372;SDS011;3219;51.362;7.074;2023-05-03T00:28:37;6.43;;;3.60;;
6372;SDS011;3219;51.362;7.074;2023-05-03T00:31:07;4.07;;;2.80;;
6372;SDS011;3219;51.362;7.074;2023-05-03T00:33:34;7.43;;;3.47;;
6372;SDS011;3219;51.362;7.074;2023-05-03T00:36:07;5.60;;;3.30;;
6372;SDS011;3219;51.362;7.074;2023-05-03T00:38:36;5.05;;;3.03;;
6372;SDS011;3219;51.362;7.074;2023-05-03T00:41:03;6.43;;;3.65;;
6372;SDS011;3219;51.362;7.074;2023-05-03T00:43:30;4.97;;;2.83;;
6372;SDS011;3219;51.362;7.074;2023-05-03T00:45:57;6.13;;;2.78;;
6372;SDS011;3219;51.362;7.074;2023-05-03T00:48:25;7.20;;;3.85;;
6372;SDS011;3219;51.362;7.074;2023-05-03T00:50:52;6.43;;;3.15;;
6372;SDS011;3219;51.362;7.074;2023-05-03T00:53:20;4.97;;;2.95;;
6372;SDS011;3219;51.362;7.074;2023-05-03T00:55:49;3.95;;;3.53;;
6372;SDS011;3219;51.362;7.074;2023-05-03T00:58:19;5.53;;;3.00;;
6372;SDS011;3219;51.362;7.074;2023-05-03T01:00:46;4.13;;;3.38;;
6372;SDS011;3219;51.362;7.074;2023-05-03T01:03:13;6.35;;;3.42;;
6372;SDS011;3219;51.362;7.074;2023-05-03T01:05:42;4.03;;;3.33;;
6372;SDS011;3219;51.362;7.074;2023-05-03T01:08:17;5.25;;;3.28;;
6372;SDS011;3219;51.362;7.074;2023-05-03T01:10:54;4.75;;;3.13;;
6372;SDS011;3219;51.362;7.074;2023-05-03T01:13:27;4.60;;;3.85;;
6372;SDS011;3219;51.362;7.074;2023-05-03T01:16:05;5.63;;;3.83;;
6372;SDS011;3219;51.362;7.074;2023-05-03T01:18:37;6.00;;;4.07;;
6372;SDS011;3219;51.362;7.074;2023-05-03T01:21:08;5.75;;;3.90;;
6372;SDS011;3219;51.362;7.074;2023-05-03T01:23:39;6.82;;;3.78;;
6372;SDS011;3219;51.362;7.074;2023-05-03T01:26:16;6.18;;;3.65;;
6372;SDS011;3219;51.362;7.074;2023-05-03T01:28:45;6.72;;;3.83;;
6372;SDS011;3219;51.362;7.074;2023-05-03T01:31:13;4.90;;;4.38;;
6372;SDS011;3219;51.362;7.074;2023-05-03T01:33:46;7.15;;;3.50;;
6372;SDS011;3219;51.362;7.074;2023-05-03T01:36:19;6.50;;;4.65;;
6372;SDS011;3219;51.362;7.074;2023-05-03T01:38:48;7.70;;;3.58;;
6372;SDS011;3219;51.362;7.074;2023-05-03T01:41:17;5.57;;;3.42;;
6372;SDS011;3219;51.362;7.074;2023-05-03T01:43:45;5.03;;;2.67;;
6372;SDS011;3219;51.362;7.074;2023-05-03T01:46:13;8.35;;;6.35;;
6372;SDS011;3219;51.362;7.074;2023-05-03T01:48:40;5.47;;;3.55;;
6372;SDS011;3219;51.362;7.074;2023-05-03T01:51:07;6.40;;;4.93;;
6372;SDS011;3219;51.362;7.074;2023-05-03T01:53:34;6.40;;;4.22;;
6372;SDS011;3219;51.362;7.074;2023-05-03T01:56:01;5.43;;;3.20;;
6372;SDS011;3219;51.362;7.074;2023-05-03T01:58:29;5.40;;;4.15;;
6372;SDS011;3219;51.362;7.074;2023-05-03T02:00:56;5.93;;;3.70;;
6372;SDS011;3219;51.362;7.074;2023-05-03T02:03:23;5.90;;;4.38;;
6372;SDS011;3219;51.362;7.074;2023-05-03T02:05:50;6.18;;;3.67;;
6372;SDS011;3219;51.362;7.074;2023-05-03T02:08:16;9.48;;;2.90;;
6372;SDS011;3219;51.362;7.074;2023-05-03T02:10:43;4.60;;;3.60;;
6372;SDS011;3219;51.362;7.074;2023-05-03T02:13:10;6.55;;;3.58;;
6372;SDS011;3219;51.362;7.074;2023-05-03T02:15:38;7.28;;;4.45;;
6372;SDS011;3219;51.362;7.074;2023-05-03T02:18:05;10.73;;;4.93;;
6372;SDS011;3219;51.362;7.074;2023-05-03T02:20:32;7.55;;;5.15;;
6372;SDS011;3219;51.362;7.074;2023-05-03T02:23:01;6.38;;;4.72;;
6372;SDS011;3219;51.362;7.074;2023-05-03T02:25:28;10.95;;;5.00;;
6372;SDS011;3219;51.362;7.074;2023-05-03T02:27:55;8.75;;;5.47;;
6372;SDS011;3219;51.362;7.074;2023-05-03T02:30:22;9.70;;;5.47;;
6372;SDS011;3219;51.362;7.074;2023-05-03T02:32:51;7.47;;;5.53;;
6372;SDS011;3219;51.362;7.074;2023-05-03T02:35:17;7.03;;;4.10;;
6372;SDS011;3219;51.362;7.074;2023-05-03T02:37:44;8.13;;;5.00;;
6372;SDS011;3219;51.362;7.074;2023-05-03T02:40:11;7.45;;;4.57;;
6372;SDS011;3219;51.362;7.074;2023-05-03T02:42:38;8.07;;;5.40;;
6372;SDS011;3219;51.362;7.074;2023-05-03T02:45:05;6.50;;;5.15;;
6372;SDS011;3219;51.362;7.074;2023-05-03T02:47:32;8.65;;;5.93;;
6372;SDS011;3219;51.362;7.074;2023-05-03T02:50:01;10.73;;;5.75;;
6372;SDS011;3219;51.362;7.074;2023-05-03T02:52:27;8.35;;;5.03;;
6372;SDS011;3219;51.362;7.074;2023-05-03T02:54:54;7.10;;;5.38;;
6372;SDS011;3219;51.362;7.074;2023-05-03T02:57:21;9.43;;;4.88;;
6372;SDS011;3219;51.362;7.074;2023-05-03T02:59:48;7.93;;;5.60;;
6372;SDS011;3219;51.362;7.074;2023-05-03T03:02:14;10.07;;;5.20;;
6372;SDS011;3219;51.362;7.074;2023-05-03T03:04:41;7.50;;;5.05;;
6372;SDS011;3219;51.362;7.074;2023-05-03T03:07:09;8.50;;;5.63;;
6372;SDS011;3219;51.362;7.074;2023-05-03T03:09:36;8.32;;;4.97;;
6372;SDS011;3219;51.362;7.074;2023-05-03T03:12:03;9.75;;;5.68;;
6372;SDS011;3219;51.362;7.074;2023-05-03T03:14:30;9.68;;;5.63;;
6372;SDS011;3219;51.362;7.074;2023-05-03T03:16:57;8.80;;;5.50;;
6372;SDS011;3219;51.362;7.074;2023-05-03T03:19:23;7.53;;;4.93;;
6372;SDS011;3219;51.362;7.074;2023-05-03T03:21:50;9.15;;;6.18;;
6372;SDS011;3219;51.362;7.074;2023-05-03T03:24:18;10.70;;;5.78;;
6372;SDS011;3219;51.362;7.074;2023-05-03T03:26:45;10.65;;;4.78;;
6372;SDS011;3219;51.362;7.074;2023-05-03T03:29:12;8.70;;;5.82;;
6372;SDS011;3219;51.362;7.074;2023-05-03T03:31:39;6.57;;;4.78;;
6372;SDS011;3219;51.362;7.074;2023-05-03T03:34:05;6.80;;;5.07;;
6372;SDS011;3219;51.362;7.074;2023-05-03T03:36:32;7.28;;;4.75;;
6372;SDS011;3219;51.362;7.074;2023-05-03T03:39:01;9.77;;;5.80;;
6372;SDS011;3219;51.362;7.074;2023-05-03T03:41:30;9.45;;;6.15;;
6372;SDS011;3219;51.362;7.074;2023-05-03T03:43:57;9.10;;;6.28;;
6372;SDS011;3219;51.362;7.074;2023-05-03T03:46:24;7.93;;;4.60;;
6372;SDS011;3219;51.362;7.074;2023-05-03T03:48:50;8.45;;;5.07;;
6372;SDS011;3219;51.362;7.074;2023-05-03T03:51:17;8.63;;;5.63;;
6372;SDS011;3219;51.362;7.074;2023-05-03T03:53:44;10.65;;;7.63;;
6372;SDS011;3219;51.362;7.074;2023-05-03T03:56:11;10.52;;;6.28;;
6372;SDS011;3219;51.362;7.074;2023-05-03T03:58:39;10.13;;;5.82;;
6372;SDS011;3219;51.362;7.074;2023-05-03T04:01:05;8.48;;;5.25;;
6372;SDS011;3219;51.362;7.074;2023-05-03T04:03:32;10.23;;;6.18;;
6372;SDS011;3219;51.362;7.074;2023-05-03T04:05:59;10.65;;;6.63;;
6372;SDS011;3219;51.362;7.074;2023-05-03T04:08:26;9.50;;;6.40;;
6372;SDS011;3219;51.362;7.074;2023-05-03T04:10:52;9.07;;;6.25;;
6372;SDS011;3219;51.362;7.074;2023-05-03T04:13:19;12.77;;;6.40;;
6372;SDS011;3219;51.362;7.074;2023-05-03T04:15:47;10.85;;;7.32;;
6372;SDS011;3219;51.362;7.074;2023-05-03T04:18:14;8.10;;;5.78;;
6372;SDS011;3219;51.362;7.074;2023-05-03T04:20:41;12.73;;;6.45;;
6372;SDS011;3219;51.362;7.074;2023-05-03T04:23:07;9.52;;;7.07;;
6372;SDS011;3219;51.362;7.074;2023-05-03T04:25:34;7.97;;;6.00;;
6372;SDS011;3219;51.362;7.074;2023-05-03T04:28:03;10.15;;;6.28;;
6372;SDS011;3219;51.362;7.074;2023-05-03T04:30:30;9.88;;;6.20;;
6372;SDS011;3219;51.362;7.074;2023-05-03T04:33:01;9.85;;;5.97;;
6372;SDS011;3219;51.362;7.074;2023-05-03T04:35:28;8.70;;;5.43;;
6372;SDS011;3219;51.362;7.074;2023-05-03T04:37:55;9.25;;;5.82;;
6372;SDS011;3219;51.362;7.074;2023-05-03T04:40:22;9.82;;;5.82;;
6372;SDS011;3219;51.362;7.074;2023-05-03T04:42:48;8.68;;;5.35;;
6372;SDS011;3219;51.362;7.074;2023-05-03T04:45:15;9.93;;;4.75;;
6372;SDS011;3219;51.362;7.074;2023-05-03T04:47:42;8.27;;;5.25;;
6372;SDS011;3219;51.362;7.074;2023-05-03T04:50:11;6.78;;;5.30;;
6372;SDS011;3219;51.362;7.074;2023-05-03T04:52:37;6.82;;;4.95;;
6372;SDS011;3219;51.362;7.074;2023-05-03T04:55:04;7.95;;;4.32;;
6372;SDS011;3219;51.362;7.074;2023-05-03T04:57:32;5.90;;;3.90;;
6372;SDS011;3219;51.362;7.074;2023-05-03T04:59:59;9.50;;;5.20;;
6372;SDS011;3219;51.362;7.074;2023-05-03T05:02:26;8.85;;;5.15;;
6372;SDS011;3219;51.362;7.074;2023-05-03T05:04:53;7.88;;;5.32;;
6372;SDS011;3219;51.362;7.074;2023-05-03T05:07:21;8.93;;;5.93;;
6372;SDS011;3219;51.362;7.074;2023-05-03T05:09:48;10.05;;;6.18;;
6372;SDS011;3219;51.362;7.074;2023-05-03T05:12:15;6.40;;;5.05;;
6372;SDS011;3219;51.362;7.074;2023-05-03T05:14:41;9.10;;;4.80;;
6372;SDS011;3219;51.362;7.074;2023-05-03T05:17:09;9.57;;;4.13;;
6372;SDS011;3219;51.362;7.074;2023-05-03T05:19:35;6.20;;;4.07;;
6372;SDS011;3219;51.362;7.074;2023-05-03T05:22:02;7.32;;;5.10;;
6372;SDS011;3219;51.362;7.074;2023-05-03T05:24:30;6.03;;;4.97;;
6372;SDS011;3219;51.362;7.074;2023-05-03T05:26:57;10.13;;;4.85;;
6372;SDS011;3219;51.362;7.074;2023-05-03T05:29:25;8.15;;;5.22;;
6372;SDS011;3219;51.362;7.074;2023-05-03T05:31:52;7.38;;;4.85;;
6372;SDS011;3219;51.362;7.074;2023-05-03T05:34:18;7.80;;;5.60;;
6372;SDS011;3219;51.362;7.074;2023-05-03T05:36:45;8.32;;;5.80;;
6372;SDS011;3219;51.362;7.074;2023-05-03T05:39:12;8.65;;;5.40;;
6372;SDS011;3219;51.362;7.074;2023-05-03T05:41:40;8.52;;;5.28;;
6372;SDS011;3219;51.362;7.074;2023-05-03T05:44:07;10.98;;;5.22;;
6372;SDS011;3219;51.362;7.074;2023-05-03T05:46:33;8.43;;;4.97;;
6372;SDS011;3219;51.362;7.074;2023-05-03T05:49:00;6.80;;;5.18;;
6372;SDS011;3219;51.362;7.074;2023-05-03T05:51:27;8.48;;;5.53;;
6372;SDS011;3219;51.362;7.074;2023-05-03T05:53:54;11.57;;;5.93;;
6372;SDS011;3219;51.362;7.074;2023-05-03T05:56:21;10.43;;;5.97;;
6372;SDS011;3219;51.362;7.074;2023-05-03T05:58:49;9.43;;;5.25;;
6372;SDS011;3219;51.362;7.074;2023-05-03T06:01:16;8.13;;;5.28;;
6372;SDS011;3219;51.362;7.074;2023-05-03T06:03:42;8.18;;;5.28;;
6372;SDS011;3219;51.362;7.074;2023-05-03T06:06:09;6.50;;;5.38;;
6372;SDS011;3219;51.362;7.074;2023-05-03T06:08:36;8.98;;;5.57;;
6372;SDS011;3219;51.362;7.074;2023-05-03T06:11:03;6.85;;;5.00;;
6372;SDS011;3219;51.362;7.074;2023-05-03T06:13:29;7.40;;;5.13;;
6372;SDS011;3219;51.362;7.074;2023-05-03T06:15:59;7.80;;;5.28;;
6372;SDS011;3219;51.362;7.074;2023-05-03T06:18:27;9.52;;;6.00;;
6372;SDS011;3219;51.362;7.074;2023-05-03T06:20:54;8.77;;;5.53;;
6372;SDS011;3219;51.362;7.074;2023-05-03T06:23:21;7.80;;;4.28;;
6372;SDS011;3219;51.362;7.074;2023-05-03T06:25:48;9.25;;;4.93;;
6372;SDS011;3219;51.362;7.074;2023-05-03T06:28:14;8.15;;;5.65;;
6372;SDS011;3219;51.362;7.074;2023-05-03T06:30:41;6.60;;;4.85;;
6372;SDS011;3219;51.362;7.074;2023-05-03T06:33:15;6.60;;;4.45;;
6372;SDS011;3219;51.362;7.074;2023-05-03T06:35:41;5.63;;;5.00;;
6372;SDS011;3219;51.362;7.074;2023-05-03T06:40:37;7.18;;;4.75;;
6372;SDS011;3219;51.362;7.074;2023-05-03T06:43:05;9.40;;;4.68;;
6372;SDS011;3219;51.362;7.074;2023-05-03T06:45:32;6.80;;;4.90;;
6372;SDS011;3219;51.362;7.074;2023-05-03T06:47:58;7.82;;;4.47;;
6372;SDS011;3219;51.362;7.074;2023-05-03T06:50:26;5.90;;;4.38;;
6372;SDS011;3219;51.362;7.074;2023-05-03T06:52:53;8.55;;;4.32;;
6372;SDS011;3219;51.362;7.074;2023-05-03T06:55:20;5.07;;;3.90;;
6372;SDS011;3219;51.362;7.074;2023-05-03T06:57:47;6.63;;;4.25;;
6372;SDS011;3219;51.362;7.074;2023-05-03T07:00:16;7.68;;;4.28;;
6372;SDS011;3219;51.362;7.074;2023-05-03T07:02:45;6.72;;;4.82;;
6372;SDS011;3219;51.362;7.074;2023-05-03T07:05:11;9.05;;;5.03;;
6372;SDS011;3219;51.362;7.074;2023-05-03T07:07:39;8.43;;;4.32;;
6372;SDS011;3219;51.362;7.074;2023-05-03T07:10:06;5.28;;;4.05;;
6372;SDS011;3219;51.362;7.074;2023-05-03T07:12:33;6.57;;;3.92;;
6372;SDS011;3219;51.362;7.074;2023-05-03T07:15:00;5.93;;;3.70;;
6372;SDS011;3219;51.362;7.074;2023-05-03T07:17:27;7.90;;;4.57;;
6372;SDS011;3219;51.362;7.074;2023-05-03T07:19:55;5.72;;;4.00;;
6372;SDS011;3219;51.362;7.074;2023-05-03T07:22:22;4.88;;;3.17;;
6372;SDS011;3219;51.362;7.074;2023-05-03T07:24:51;7.68;;;3.13;;
6372;SDS011;3219;51.362;7.074;2023-05-03T07:27:18;5.40;;;3.70;;
6372;SDS011;3219;51.362;7.074;2023-05-03T07:29:45;8.85;;;3.97;;
6372;SDS011;3219;51.362;7.074;2023-05-03T07:32:12;5.10;;;3.38;;
6372;SDS011;3219;51.362;7.074;2023-05-03T07:34:39;8.18;;;4.32;;
6372;SDS011;3219;51.362;7.074;2023-05-03T07:37:05;5.10;;;3.45;;
6372;SDS011;3219;51.362;7.074;2023-05-03T07:39:32;5.00;;;4.43;;
6372;SDS011;3219;51.362;7.074;2023-05-03T07:42:00;5.63;;;3.38;;
6372;SDS011;3219;51.362;7.074;2023-05-03T07:44:27;5.55;;;3.17;;
6372;SDS011;3219;51.362;7.074;2023-05-03T07:46:54;6.93;;;4.13;;
6372;SDS011;3219;51.362;7.074;2023-05-03T07:49:21;7.05;;;2.83;;
6372;SDS011;3219;51.362;7.074;2023-05-03T07:51:47;5.53;;;2.40;;
6372;SDS011;3219;51.362;7.074;2023-05-03T07:54:15;3.50;;;2.30;;
6372;SDS011;3219;51.362;7.074;2023-05-03T07:56:42;3.00;;;2.40;;
6372;SDS011;3219;51.362;7.074;2023-05-03T07:59:10;3.70;;;3.10;;
6372;SDS011;3219;51.362;7.074;2023-05-03T08:01:37;4.15;;;2.58;;
6372;SDS011;3219;51.362;7.074;2023-05-03T08:04:04;6.38;;;2.80;;
6372;SDS011;3219;51.362;7.074;2023-05-03T08:06:31;6.82;;;2.95;;
6372;SDS011;3219;51.362;7.074;2023-05-03T08:08:59;5.47;;;2.42;;
6372;SDS011;3219;51.362;7.074;2023-05-03T08:11:26;5.68;;;3.55;;
6372;SDS011;3219;51.362;7.074;2023-05-03T08:13:53;4.22;;;2.72;;
6372;SDS011;3219;51.362;7.074;2023-05-03T08:16:21;4.32;;;2.78;;
6372;SDS011;3219;51.362;7.074;2023-05-03T08:18:48;4.07;;;2.50;;
6372;SDS011;3219;51.362;7.074;2023-05-03T08:21:15;5.40;;;2.85;;
6372;SDS011;3219;51.362;7.074;2023-05-03T08:23:43;4.53;;;1.88;;
6372;SDS011;3219;51.362;7.074;2023-05-03T08:26:10;3.60;;;2.60;;
6372;SDS011;3219;51.362;7.074;2023-05-03T08:28:38;6.00;;;2.80;;
6372;SDS011;3219;51.362;7.074;2023-05-03T08:31:04;5.20;;;2.72;;
6372;SDS011;3219;51.362;7.074;2023-05-03T08:33:33;4.88;;;2.60;;
6372;SDS011;3219;51.362;7.074;2023-05-03T08:35:59;3.95;;;2.72;;
6372;SDS011;3219;51.362;7.074;2023-05-03T08:38:27;4.55;;;2.70;;
6372;SDS011;3219;51.362;7.074;2023-05-03T08:40:54;3.70;;;3.17;;
6372;SDS011;3219;51.362;7.074;2023-05-03T08:43:25;4.20;;;2.30;;
6372;SDS011;3219;51.362;7.074;2023-05-03T08:45:53;5.07;;;2.95;;
6372;SDS011;3219;51.362;7.074;2023-05-03T08:48:19;4.93;;;3.13;;
6372;SDS011;3219;51.362;7.074;2023-05-03T08:50:48;5.78;;;3.00;;
6372;SDS011;3219;51.362;7.074;2023-05-03T08:53:17;3.85;;;2.80;;
6372;SDS011;3219;51.362;7.074;2023-05-03T08:55:44;4.80;;;2.90;;
6372;SDS011;3219;51.362;7.074;2023-05-03T08:58:11;5.75;;;2.60;;
6372;SDS011;3219;51.362;7.074;2023-05-03T09:00:38;5.45;;;2.75;;
6372;SDS011;3219;51.362;7.074;2023-05-03T09:03:08;4.75;;;3.25;;
6372;SDS011;3219;51.362;7.074;2023-05-03T09:05:35;5.70;;;3.22;;
6372;SDS011;3219;51.362;7.074;2023-05-03T09:08:06;6.60;;;3.88;;
6372;SDS011;3219;51.362;7.074;2023-05-03T09:13:02;5.47;;;3.10;;
6372;SDS011;3219;51.362;7.074;2023-05-03T09:15:30;6.75;;;4.38;;
6372;SDS011;3219;51.362;7.074;2023-05-03T09:18:07;5.53;;;3.63;;
6372;SDS011;3219;51.362;7.074;2023-05-03T09:20:35;4.90;;;2.97;;
6372;SDS011;3219;51.362;7.074;2023-05-03T09:23:03;6.47;;;3.90;;
6372;SDS011;3219;51.362;7.074;2023-05-03T09:25:45;7.28;;;4.53;;
6372;SDS011;3219;51.362;7.074;2023-05-03T09:30:40;5.80;;;3.22;;
6372;SDS011;3219;51.362;7.074;2023-05-03T09:33:07;5.25;;;3.00;;
6372;SDS011;3219;51.362;7.074;2023-05-03T09:35:35;4.20;;;2.95;;
6372;SDS011;3219;51.362;7.074;2023-05-03T09:38:02;4.03;;;3.47;;
6372;SDS011;3219;51.362;7.074;2023-05-03T09:40:30;3.88;;;2.75;;
6372;SDS011;3219;51.362;7.074;2023-05-03T09:43:10;4.85;;;2.97;;
6372;SDS011;3219;51.362;7.074;2023-05-03T09:45:40;5.97;;;4.07;;
6372;SDS011;3219;51.362;7.074;2023-05-03T09:48:07;6.32;;;3.40;;
6372;SDS011;3219;51.362;7.074;2023-05-03T09:50:34;7.25;;;4.75;;
6372;SDS011;3219;51.362;7.074;2023-05-03T09:53:02;5.68;;;3.30;;
6372;SDS011;3219;51.362;7.074;2023-05-03T09:55:32;5.32;;;3.38;;
6372;SDS011;3219;51.362;7.074;2023-05-03T09:58:00;5.03;;;3.30;;
6372;SDS011;3219;51.362;7.074;2023-05-03T10:00:31;5.13;;;3.10;;
6372;SDS011;3219;51.362;7.074;2023-05-03T10:03:01;7.57;;;3.72;;
6372;SDS011;3219;51.362;7.074;2023-05-03T10:05:34;17.55;;;9.13;;
6372;SDS011;3219;51.362;7.074;2023-05-03T10:08:07;4.47;;;3.47;;
6372;SDS011;3219;51.362;7.074;2023-05-03T10:10:37;4.07;;;2.53;;
6372;SDS011;3219;51.362;7.074;2023-05-03T10:13:09;4.97;;;3.13;;
6372;SDS011;3219;51.362;7.074;2023-05-03T10:15:37;5.18;;;3.28;;
6372;SDS011;3219;51.362;7.074;2023-05-03T10:18:07;4.90;;;3.28;;
6372;SDS011;3219;51.362;7.074;2023-05-03T10:20:39;6.40;;;3.20;;
6372;SDS011;3219;51.362;7.074;2023-05-03T10:23:09;5.13;;;3.08;;
6372;SDS011;3219;51.362;7.074;2023-05-03T10:25:37;4.75;;;3.97;;
6372;SDS011;3219;51.362;7.074;2023-05-03T10:28:05;7.07;;;4.55;;
6372;SDS011;3219;51.362;7.074;2023-05-03T10:30:33;5.55;;;3.40;;
6372;SDS011;3219;51.362;7.074;2023-05-03T10:35:58;6.28;;;4.63;;
6372;SDS011;3219;51.362;7.074;2023-05-03T10:38:30;5.05;;;4.00;;
6372;SDS011;3219;51.362;7.074;2023-05-03T10:40:57;5.15;;;3.50;;
6372;SDS011;3219;51.362;7.074;2023-05-03T10:43:43;7.93;;;3.90;;
6372;SDS011;3219;51.362;7.074;2023-05-03T10:46:30;4.03;;;3.28;;
6372;SDS011;3219;51.362;7.074;2023-05-03T10:49:15;5.85;;;3.47;;
6372;SDS011;3219;51.362;7.074;2023-05-03T10:51:42;3.97;;;3.45;;
6372;SDS011;3219;51.362;7.074;2023-05-03T10:54:09;7.85;;;3.95;;
6372;SDS011;3219;51.362;7.074;2023-05-03T10:56:46;4.45;;;3.45;;
6372;SDS011;3219;51.362;7.074;2023-05-03T10:59:13;6.68;;;2.88;;
6372;SDS011;3219;51.362;7.074;2023-05-03T11:01:40;4.95;;;3.35;;
6372;SDS011;3219;51.362;7.074;2023-05-03T11:04:09;3.72;;;3.30;;
6372;SDS011;3219;51.362;7.074;2023-05-03T11:06:42;7.63;;;3.40;;
6372;SDS011;3219;51.362;7.074;2023-05-03T11:09:10;4.50;;;3.55;;
6372;SDS011;3219;51.362;7.074;2023-05-03T11:11:39;6.93;;;3.92;;
6372;SDS011;3219;51.362;7.074;2023-05-03T11:14:06;5.65;;;3.70;;
6372;SDS011;3219;51.362;7.074;2023-05-03T11:16:33;5.13;;;2.92;;
6372;SDS011;3219;51.362;7.074;2023-05-03T11:19:04;5.97;;;3.28;;
6372;SDS011;3219;51.362;7.074;2023-05-03T11:21:31;6.55;;;3.85;;
6372;SDS011;3219;51.362;7.074;2023-05-03T11:23:59;13.05;;;4.80;;
6372;SDS011;3219;51.362;7.074;2023-05-03T11:26:27;4.85;;;3.13;;
6372;SDS011;3219;51.362;7.074;2023-05-03T11:28:53;17.38;;;5.90;;
6372;SDS011;3219;51.362;7.074;2023-05-03T11:31:20;13.45;;;5.30;;
6372;SDS011;3219;51.362;7.074;2023-05-03T11:33:48;4.40;;;3.53;;
6372;SDS011;3219;51.362;7.074;2023-05-03T11:36:14;4.82;;;3.42;;
6372;SDS011;3219;51.362;7.074;2023-05-03T11:38:41;4.55;;;3.05;;
6372;SDS011;3219;51.362;7.074;2023-05-03T11:41:12;3.30;;;2.97;;
6372;SDS011;3219;51.362;7.074;2023-05-03T11:43:40;5.28;;;4.25;;
6372;SDS011;3219;51.362;7.074;2023-05-03T11:46:07;4.63;;;3.97;;
6372;SDS011;3219;51.362;7.074;2023-05-03T11:48:35;4.75;;;3.03;;
6372;SDS011;3219;51.362;7.074;2023-05-03T11:51:05;8.80;;;3.80;;
6372;SDS011;3219;51.362;7.074;2023-05-03T11:53:35;6.45;;;3.83;;
6372;SDS011;3219;51.362;7.074;2023-05-03T11:56:03;5.50;;;3.83;;
6372;SDS011;3219;51.362;7.074;2023-05-03T11:58:34;5.22;;;3.13;;
6372;SDS011;3219;51.362;7.074;2023-05-03T12:01:01;3.38;;;3.08;;
6372;SDS011;3219;51.362;7.074;2023-05-03T12:03:29;5.32;;;3.53;;
6372;SDS011;3219;51.362;7.074;2023-05-03T12:05:57;5.53;;;4.00;;
6372;SDS011;3219;51.362;7.074;2023-05-03T12:08:26;4.20;;;3.55;;
6372;SDS011;3219;51.362;7.074;2023-05-03T12:10:54;5.28;;;3.88;;
6372;SDS011;3219;51.362;7.074;2023-05-03T12:13:28;5.03;;;3.30;;
6372;SDS011;3219;51.362;7.074;2023-05-03T12:15:58;5.28;;;3.85;;
6372;SDS011;3219;51.362;7.074;2023-05-03T12:18:25;4.90;;;3.63;;
6372;SDS011;3219;51.362;7.074;2023-05-03T12:20:56;6.88;;;3.42;;
6372;SDS011;3219;51.362;7.074;2023-05-03T12:23:23;6.20;;;3.88;;
6372;SDS011;3219;51.362;7.074;2023-05-03T12:25:50;4.68;;;3.58;;
6372;SDS011;3219;51.362;7.074;2023-05-03T12:28:17;4.28;;;3.45;;
6372;SDS011;3219;51.362;7.074;2023-05-03T12:30:45;4.72;;;3.15;;
6372;SDS011;3219;51.362;7.074;2023-05-03T12:33:13;7.70;;;4.15;;
6372;SDS011;3219;51.362;7.074;2023-05-03T12:35:42;4.25;;;3.75;;
6372;SDS011;3219;51.362;7.074;2023-05-03T12:38:08;5.18;;;3.67;;
6372;SDS011;3219;51.362;7.074;2023-05-03T12:40:36;5.18;;;3.58;;
6372;SDS011;3219;51.362;7.074;2023-05-03T12:43:04;5.43;;;3.40;;
6372;SDS011;3219;51.362;7.074;2023-05-03T12:45:31;5.38;;;3.17;;
6372;SDS011;3219;51.362;7.074;2023-05-03T12:47:58;6.45;;;4.38;;
6372;SDS011;3219;51.362;7.074;2023-05-03T12:50:26;6.30;;;5.40;;
6372;SDS011;3219;51.362;7.074;2023-05-03T12:52:53;7.85;;;3.80;;
6372;SDS011;3219;51.362;7.074;2023-05-03T12:55:19;5.30;;;3.35;;
6372;SDS011;3219;51.362;7.074;2023-05-03T12:57:46;5.15;;;3.20;;
6372;SDS011;3219;51.362;7.074;2023-05-03T13:00:13;5.93;;;3.70;;
6372;SDS011;3219;51.362;7.074;2023-05-03T13:02:41;4.93;;;3.60;;
6372;SDS011;3219;51.362;7.074;2023-05-03T13:05:08;5.32;;;3.97;;
6372;SDS011;3219;51.362;7.074;2023-05-03T13:07:38;4.72;;;3.47;;
6372;SDS011;3219;51.362;7.074;2023-05-03T13:10:05;4.57;;;3.13;;
6372;SDS011;3219;51.362;7.074;2023-05-03T13:12:32;5.07;;;3.50;;
6372;SDS011;3219;51.362;7.074;2023-05-03T13:15:00;4.82;;;3.85;;
6372;SDS011;3219;51.362;7.074;2023-05-03T13:17:29;5.60;;;3.80;;
6372;SDS011;3219;51.362;7.074;2023-05-03T13:19:56;5.05;;;3.17;;
6372;SDS011;3219;51.362;7.074;2023-05-03T13:22:23;4.55;;;3.42;;
6372;SDS011;3219;51.362;7.074;2023-05-03T13:24:51;7.15;;;3.70;;
6372;SDS011;3219;51.362;7.074;2023-05-03T13:27:18;5.10;;;3.50;;
6372;SDS011;3219;51.362;7.074;2023-05-03T13:29:45;5.45;;;4.60;;
6372;SDS011;3219;51.362;7.074;2023-05-03T13:32:12;4.65;;;3.42;;
6372;SDS011;3219;51.362;7.074;2023-05-03T13:34:38;3.58;;;3.17;;
6372;SDS011;3219;51.362;7.074;2023-05-03T13:37:05;6.63;;;3.50;;
6372;SDS011;3219;51.362;7.074;2023-05-03T13:39:32;7.32;;;3.22;;
6372;SDS011;3219;51.362;7.074;2023-05-03T13:42:00;3.75;;;3.35;;
6372;SDS011;3219;51.362;7.074;2023-05-03T13:44:27;5.32;;;3.47;;
6372;SDS011;3219;51.362;7.074;2023-05-03T13:46:54;5.80;;;4.45;;
6372;SDS011;3219;51.362;7.074;2023-05-03T13:49:20;5.22;;;4.43;;
6372;SDS011;3219;51.362;7.074;2023-05-03T13:51:47;6.13;;;4.78;;
6372;SDS011;3219;51.362;7.074;2023-05-03T13:54:14;5.57;;;4.10;;
6372;SDS011;3219;51.362;7.074;2023-05-03T13:56:41;5.30;;;3.80;;
6372;SDS011;3219;51.362;7.074;2023-05-03T13:59:10;7.28;;;4.57;;
6372;SDS011;3219;51.362;7.074;2023-05-03T14:01:38;6.28;;;3.75;;
6372;SDS011;3219;51.362;7.074;2023-05-03T14:04:07;6.43;;;3.70;;
6372;SDS011;3219;51.362;7.074;2023-05-03T14:06:34;6.07;;;3.35;;
6372;SDS011;3219;51.362;7.074;2023-05-03T14:09:01;5.03;;;3.90;;
6372;SDS011;3219;51.362;7.074;2023-05-03T14:11:28;5.88;;;3.58;;
6372;SDS011;3219;51.362;7.074;2023-05-03T14:13:55;6.75;;;3.67;;
6372;SDS011;3219;51.362;7.074;2023-05-03T14:16:24;6.20;;;4.22;;
6372;SDS011;3219;51.362;7.074;2023-05-03T14:18:53;5.78;;;3.95;;
6372;SDS011;3219;51.362;7.074;2023-05-03T14:21:20;5.03;;;4.32;;
6372;SDS011;3219;51.362;7.074;2023-05-03T14:23:47;6.20;;;4.65;;
6372;SDS011;3219;51.362;7.074;2023-05-03T14:26:14;7.00;;;4.20;;
6372;SDS011;3219;51.362;7.074;2023-05-03T14:28:42;4.78;;;3.67;;
6372;SDS011;3219;51.362;7.074;2023-05-03T14:31:09;4.50;;;3.25;;
6372;SDS011;3219;51.362;7.074;2023-05-03T14:33:37;6.72;;;5.00;;
6372;SDS011;3219;51.362;7.074;2023-05-03T14:36:06;5.60;;;3.08;;
6372;SDS011;3219;51.362;7.074;2023-05-03T14:38:33;5.40;;;4.53;;
6372;SDS011;3219;51.362;7.074;2023-05-03T14:41:01;6.70;;;4.47;;
6372;SDS011;3219;51.362;7.074;2023-05-03T14:43:28;5.90;;;4.28;;
6372;SDS011;3219;51.362;7.074;2023-05-03T14:45:55;6.03;;;4.95;;
6372;SDS011;3219;51.362;7.074;2023-05-03T14:48:22;6.65;;;3.88;;
6372;SDS011;3219;51.362;7.074;2023-05-03T14:50:50;5.82;;;4.05;;
6372;SDS011;3219;51.362;7.074;2023-05-03T14:53:17;6.22;;;4.18;;
6372;SDS011;3219;51.362;7.074;2023-05-03T14:55:45;6.70;;;4.20;;
6372;SDS011;3219;51.362;7.074;2023-05-03T14:58:12;7.25;;;4.72;;
6372;SDS011;3219;51.362;7.074;2023-05-03T15:00:39;5.38;;;3.47;;
6372;SDS011;3219;51.362;7.074;2023-05-03T15:03:06;6.00;;;4.40;;
6372;SDS011;3219;51.362;7.074;2023-05-03T15:05:40;6.43;;;5.03;;
6372;SDS011;3219;51.362;7.074;2023-05-03T15:08:09;6.60;;;3.75;;
6372;SDS011;3219;51.362;7.074;2023-05-03T15:10:38;6.40;;;3.75;;
6372;SDS011;3219;51.362;7.074;2023-05-03T15:13:05;8.95;;;4.38;;
6372;SDS011;3219;51.362;7.074;2023-05-03T15:15:32;5.45;;;4.35;;
6372;SDS011;3219;51.362;7.074;2023-05-03T15:17:59;5.75;;;5.03;;
6372;SDS011;3219;51.362;7.074;2023-05-03T15:20:26;7.20;;;5.50;;
6372;SDS011;3219;51.362;7.074;2023-05-03T15:22:53;5.68;;;4.35;;
6372;SDS011;3219;51.362;7.074;2023-05-03T15:25:21;6.18;;;3.67;;
6372;SDS011;3219;51.362;7.074;2023-05-03T15:27:48;8.13;;;4.30;;
6372;SDS011;3219;51.362;7.074;2023-05-03T15:30:16;7.07;;;4.32;;